SAS55D ENGM-ENZV
Flight info
| Callsign | SAS55D |
|---|---|
| Flight time | 0h 42m |
| Altitude | 30000 |
| Route | ATLAP7D ATLAP DCT IPMOD DCT ROPNO ROPNO2R |
| Aircraft | E195/M-SDE3GILORVW/S |
Departure
| Time | 2026-05-06 10:06 |
|---|---|
| Airport | Oslo-Gardermoen International Airport (ENGM) |
Arrival
| Time | 2026-05-06 10:48 |
|---|---|
| Airport | Stavanger Airport, Sola (ENZV) |
| Time | Latitude | Longitude | Altitude | Speed | Heading |
|---|---|---|---|---|---|
| 2026-05-06 09:46 | 60.19513 | 11.09121 | 686 ft | 0 kts | 16° |
| 2026-05-06 09:55 | 60.19504 | 11.09115 | 686 ft | 2 kts | 16° |
| 2026-05-06 09:56 | 60.19489 | 11.09107 | 686 ft | 2 kts | 16° |
| 2026-05-06 09:56 | 60.19475 | 11.09099 | 686 ft | 2 kts | 16° |
| 2026-05-06 09:56 | 60.19466 | 11.09093 | 686 ft | 0 kts | 16° |
| 2026-05-06 09:58 | 60.19468 | 11.09092 | 686 ft | 0 kts | 345° |
| 2026-05-06 09:58 | 60.19471 | 11.09087 | 686 ft | 0 kts | 297° |
| 2026-05-06 09:58 | 60.19470 | 11.09063 | 686 ft | 4 kts | 264° |
| 2026-05-06 09:58 | 60.19474 | 11.08971 | 686 ft | 9 kts | 281° |
| 2026-05-06 09:59 | 60.19496 | 11.08813 | 686 ft | 14 kts | 285° |
| 2026-05-06 09:59 | 60.19527 | 11.08610 | 686 ft | 14 kts | 301° |
| 2026-05-06 09:59 | 60.19622 | 11.08585 | 686 ft | 15 kts | 14° |
| 2026-05-06 09:59 | 60.19733 | 11.08649 | 686 ft | 17 kts | 16° |
| 2026-05-06 10:00 | 60.19861 | 11.08719 | 686 ft | 19 kts | 15° |
| 2026-05-06 10:00 | 60.20000 | 11.08808 | 686 ft | 21 kts | 20° |
| 2026-05-06 10:00 | 60.20150 | 11.08896 | 686 ft | 23 kts | 12° |
| 2026-05-06 10:00 | 60.20310 | 11.08975 | 686 ft | 24 kts | 17° |
| 2026-05-06 10:01 | 60.20480 | 11.09080 | 686 ft | 26 kts | 16° |
| 2026-05-06 10:01 | 60.20662 | 11.09186 | 686 ft | 27 kts | 15° |
| 2026-05-06 10:01 | 60.20850 | 11.09295 | 686 ft | 28 kts | 15° |
| 2026-05-06 10:01 | 60.21043 | 11.09406 | 686 ft | 29 kts | 16° |
| 2026-05-06 10:02 | 60.21204 | 11.09498 | 686 ft | 23 kts | 16° |
| 2026-05-06 10:02 | 60.21365 | 11.09593 | 686 ft | 24 kts | 16° |
| 2026-05-06 10:02 | 60.21504 | 11.09614 | 686 ft | 19 kts | 333° |
| 2026-05-06 10:02 | 60.21550 | 11.09467 | 686 ft | 12 kts | 291° |
| 2026-05-06 10:03 | 60.21558 | 11.09425 | 686 ft | 0 kts | 289° |
| 2026-05-06 10:03 | 60.21561 | 11.09408 | 686 ft | 1 kts | 289° |
| 2026-05-06 10:03 | 60.21567 | 11.09373 | 686 ft | 3 kts | 286° |
| 2026-05-06 10:03 | 60.21573 | 11.09318 | 686 ft | 4 kts | 280° |
| 2026-05-06 10:04 | 60.21577 | 11.09239 | 686 ft | 6 kts | 271° |
| 2026-05-06 10:04 | 60.21560 | 11.09142 | 686 ft | 8 kts | 209° |
| 2026-05-06 10:04 | 60.21523 | 11.09118 | 686 ft | 0 kts | 197° |
| 2026-05-06 10:05 | 60.21505 | 11.09107 | 686 ft | 7 kts | 196° |
| 2026-05-06 10:05 | 60.21295 | 11.08987 | 686 ft | 60 kts | 196° |
| 2026-05-06 10:06 | 60.20667 | 11.08627 | 686 ft | 124 kts | 197° |
| 2026-05-06 10:06 | 60.19670 | 11.08046 | 698 ft | 172 kts | 195° |
| 2026-05-06 10:06 | 60.18491 | 11.07366 | 1200 ft | 181 kts | 197° |
| 2026-05-06 10:06 | 60.17476 | 11.05916 | 1823 ft | 190 kts | 236° |
| 2026-05-06 10:07 | 60.16969 | 11.03411 | 2563 ft | 201 kts | 250° |
| 2026-05-06 10:07 | 60.16338 | 11.00922 | 3340 ft | 209 kts | 236° |
| 2026-05-06 10:07 | 60.15427 | 10.98568 | 4029 ft | 224 kts | 228° |
| 2026-05-06 10:07 | 60.14349 | 10.96050 | 4429 ft | 254 kts | 241° |
| 2026-05-06 10:08 | 60.13939 | 10.92526 | 5187 ft | 269 kts | 268° |
| 2026-05-06 10:08 | 60.13872 | 10.88855 | 6240 ft | 271 kts | 266° |
| 2026-05-06 10:08 | 60.13775 | 10.85122 | 7407 ft | 269 kts | 266° |
| 2026-05-06 10:08 | 60.13665 | 10.81426 | 8539 ft | 267 kts | 265° |
| 2026-05-06 10:09 | 60.13549 | 10.77809 | 9579 ft | 267 kts | 265° |
| 2026-05-06 10:09 | 60.13426 | 10.74119 | 10570 ft | 268 kts | 265° |
| 2026-05-06 10:09 | 60.13300 | 10.70382 | 11424 ft | 274 kts | 266° |
| 2026-05-06 10:09 | 60.13364 | 10.66481 | 12152 ft | 285 kts | 272° |
| 2026-05-06 10:10 | 60.13457 | 10.62495 | 12951 ft | 292 kts | 271° |
| 2026-05-06 10:10 | 60.13535 | 10.58488 | 13869 ft | 295 kts | 271° |
| 2026-05-06 10:10 | 60.13607 | 10.54424 | 14913 ft | 293 kts | 271° |
| 2026-05-06 10:10 | 60.13674 | 10.50385 | 15966 ft | 291 kts | 271° |
| 2026-05-06 10:11 | 60.13739 | 10.46414 | 16927 ft | 290 kts | 271° |
| 2026-05-06 10:11 | 60.13801 | 10.42406 | 17871 ft | 289 kts | 271° |
| 2026-05-06 10:11 | 60.13862 | 10.38431 | 18764 ft | 289 kts | 271° |
| 2026-05-06 10:11 | 60.13922 | 10.34405 | 19616 ft | 291 kts | 270° |
| 2026-05-06 10:12 | 60.13981 | 10.30362 | 20365 ft | 294 kts | 270° |
| 2026-05-06 10:12 | 60.14039 | 10.26249 | 21099 ft | 299 kts | 269° |
| 2026-05-06 10:12 | 60.14097 | 10.22104 | 21872 ft | 301 kts | 269° |
| 2026-05-06 10:12 | 60.14154 | 10.17943 | 22591 ft | 304 kts | 268° |
| 2026-05-06 10:13 | 60.14211 | 10.13664 | 23266 ft | 308 kts | 268° |
| 2026-05-06 10:13 | 60.14266 | 10.09380 | 23954 ft | 311 kts | 267° |
| 2026-05-06 10:13 | 60.14320 | 10.05090 | 24649 ft | 313 kts | 267° |
| 2026-05-06 10:13 | 60.14374 | 10.00730 | 25299 ft | 316 kts | 267° |
| 2026-05-06 10:14 | 60.14427 | 9.96277 | 25904 ft | 320 kts | 268° |
| 2026-05-06 10:14 | 60.14479 | 9.91848 | 26499 ft | 324 kts | 267° |
| 2026-05-06 10:14 | 60.14530 | 9.87332 | 27092 ft | 327 kts | 267° |
| 2026-05-06 10:14 | 60.14503 | 9.82774 | 27658 ft | 328 kts | 261° |
| 2026-05-06 10:15 | 60.14004 | 9.78290 | 28230 ft | 328 kts | 250° |
| 2026-05-06 10:15 | 60.13041 | 9.74096 | 28756 ft | 332 kts | 243° |
| 2026-05-06 10:15 | 60.11972 | 9.70012 | 29302 ft | 334 kts | 243° |
| 2026-05-06 10:15 | 60.10895 | 9.65913 | 29808 ft | 331 kts | 243° |
| 2026-05-06 10:16 | 60.08680 | 9.57505 | 29895 ft | 356 kts | 243° |
| 2026-05-06 10:16 | 60.06324 | 9.48602 | 29880 ft | 367 kts | 243° |
| 2026-05-06 10:17 | 60.03930 | 9.39588 | 29885 ft | 365 kts | 243° |
| 2026-05-06 10:17 | 60.01546 | 9.30652 | 29904 ft | 367 kts | 242° |
| 2026-05-06 10:18 | 59.99144 | 9.21680 | 29906 ft | 367 kts | 242° |
| 2026-05-06 10:18 | 59.96744 | 9.12751 | 29881 ft | 368 kts | 242° |
| 2026-05-06 10:19 | 59.94320 | 9.03770 | 29866 ft | 368 kts | 242° |
| 2026-05-06 10:19 | 59.91905 | 8.94855 | 29872 ft | 368 kts | 242° |
| 2026-05-06 10:20 | 59.89478 | 8.85932 | 29889 ft | 368 kts | 242° |
| 2026-05-06 10:20 | 59.87059 | 8.77075 | 29905 ft | 366 kts | 242° |
| 2026-05-06 10:21 | 59.84643 | 8.68262 | 29897 ft | 368 kts | 242° |
| 2026-05-06 10:21 | 59.82183 | 8.59327 | 29865 ft | 366 kts | 242° |
| 2026-05-06 10:22 | 59.79743 | 8.50495 | 29845 ft | 366 kts | 242° |
| 2026-05-06 10:22 | 59.78547 | 8.46179 | 29832 ft | 353 kts | 242° |
| 2026-05-06 10:22 | 59.77368 | 8.41935 | 29839 ft | 349 kts | 242° |
| 2026-05-06 10:23 | 59.75010 | 8.33463 | 29764 ft | 354 kts | 241° |
| 2026-05-06 10:23 | 59.73827 | 8.29225 | 29411 ft | 351 kts | 241° |
| 2026-05-06 10:23 | 59.72673 | 8.25003 | 29044 ft | 349 kts | 242° |
| 2026-05-06 10:24 | 59.71514 | 8.20775 | 28665 ft | 347 kts | 242° |
| 2026-05-06 10:24 | 59.70370 | 8.16608 | 28293 ft | 346 kts | 242° |
| 2026-05-06 10:24 | 59.69244 | 8.12509 | 27926 ft | 344 kts | 242° |
| 2026-05-06 10:24 | 59.68092 | 8.08331 | 27541 ft | 342 kts | 243° |
| 2026-05-06 10:25 | 59.66966 | 8.04255 | 27168 ft | 342 kts | 243° |
| 2026-05-06 10:25 | 59.65841 | 8.00184 | 26799 ft | 339 kts | 243° |
| 2026-05-06 10:25 | 59.64713 | 7.96115 | 26442 ft | 337 kts | 243° |
| 2026-05-06 10:25 | 59.63594 | 7.92083 | 26059 ft | 336 kts | 243° |
| 2026-05-06 10:26 | 59.62473 | 7.88051 | 25680 ft | 335 kts | 243° |
| 2026-05-06 10:26 | 59.61360 | 7.84055 | 25311 ft | 335 kts | 243° |
| 2026-05-06 10:26 | 59.60244 | 7.80054 | 24948 ft | 332 kts | 243° |
| 2026-05-06 10:26 | 59.59129 | 7.76067 | 24566 ft | 331 kts | 244° |
| 2026-05-06 10:27 | 59.58019 | 7.72100 | 24206 ft | 328 kts | 243° |
| 2026-05-06 10:27 | 59.56929 | 7.68216 | 23834 ft | 327 kts | 243° |
| 2026-05-06 10:27 | 59.55830 | 7.64306 | 23467 ft | 327 kts | 243° |
| 2026-05-06 10:27 | 59.54742 | 7.60439 | 23094 ft | 326 kts | 244° |
| 2026-05-06 10:28 | 59.53644 | 7.56547 | 22733 ft | 327 kts | 244° |
| 2026-05-06 10:28 | 59.52542 | 7.52646 | 22358 ft | 325 kts | 244° |
| 2026-05-06 10:28 | 59.51445 | 7.48766 | 21986 ft | 324 kts | 244° |
| 2026-05-06 10:28 | 59.50352 | 7.44910 | 21629 ft | 322 kts | 244° |
| 2026-05-06 10:29 | 59.49266 | 7.41083 | 21266 ft | 321 kts | 244° |
| 2026-05-06 10:29 | 59.48182 | 7.37272 | 20915 ft | 322 kts | 244° |
| 2026-05-06 10:29 | 59.47097 | 7.33463 | 20571 ft | 322 kts | 244° |
| 2026-05-06 10:29 | 59.46008 | 7.29643 | 20225 ft | 319 kts | 244° |
| 2026-05-06 10:30 | 59.44915 | 7.25818 | 19865 ft | 318 kts | 244° |
| 2026-05-06 10:30 | 59.43835 | 7.22045 | 19517 ft | 317 kts | 243° |
| 2026-05-06 10:30 | 59.42757 | 7.18287 | 19166 ft | 319 kts | 244° |
| 2026-05-06 10:30 | 59.41685 | 7.14552 | 18827 ft | 317 kts | 244° |
| 2026-05-06 10:31 | 59.40603 | 7.10792 | 18474 ft | 315 kts | 244° |
| 2026-05-06 10:31 | 59.39534 | 7.07081 | 18126 ft | 316 kts | 244° |
| 2026-05-06 10:31 | 59.38451 | 7.03327 | 17784 ft | 315 kts | 244° |
| 2026-05-06 10:31 | 59.37384 | 6.99640 | 17439 ft | 314 kts | 244° |
| 2026-05-06 10:32 | 59.36308 | 6.95919 | 17088 ft | 314 kts | 244° |
| 2026-05-06 10:32 | 59.35231 | 6.92206 | 16749 ft | 312 kts | 243° |
| 2026-05-06 10:32 | 59.34177 | 6.88579 | 16401 ft | 311 kts | 244° |
| 2026-05-06 10:32 | 59.33124 | 6.84886 | 16058 ft | 310 kts | 248° |
| 2026-05-06 10:33 | 59.32457 | 6.80898 | 15790 ft | 306 kts | 256° |
| 2026-05-06 10:33 | 59.31873 | 6.76948 | 15460 ft | 306 kts | 256° |
| 2026-05-06 10:33 | 59.31285 | 6.72984 | 15129 ft | 304 kts | 256° |
| 2026-05-06 10:33 | 59.30696 | 6.69013 | 14797 ft | 303 kts | 256° |
| 2026-05-06 10:34 | 59.30107 | 6.65050 | 14471 ft | 303 kts | 256° |
| 2026-05-06 10:34 | 59.29527 | 6.61161 | 14147 ft | 302 kts | 256° |
| 2026-05-06 10:34 | 59.28935 | 6.57202 | 13827 ft | 302 kts | 256° |
| 2026-05-06 10:34 | 59.28345 | 6.53264 | 13500 ft | 302 kts | 256° |
| 2026-05-06 10:35 | 59.27760 | 6.49364 | 13174 ft | 302 kts | 256° |
| 2026-05-06 10:35 | 59.27170 | 6.45438 | 12846 ft | 302 kts | 256° |
| 2026-05-06 10:35 | 59.26574 | 6.41488 | 12521 ft | 303 kts | 255° |
| 2026-05-06 10:35 | 59.25979 | 6.37552 | 12200 ft | 303 kts | 255° |
| 2026-05-06 10:36 | 59.25380 | 6.33596 | 11875 ft | 304 kts | 255° |
| 2026-05-06 10:36 | 59.24786 | 6.29685 | 11554 ft | 301 kts | 255° |
| 2026-05-06 10:36 | 59.24195 | 6.25806 | 11223 ft | 295 kts | 255° |
| 2026-05-06 10:36 | 59.23621 | 6.22046 | 10916 ft | 290 kts | 255° |
| 2026-05-06 10:37 | 59.23046 | 6.18284 | 10604 ft | 284 kts | 255° |
| 2026-05-06 10:37 | 59.22493 | 6.14676 | 10299 ft | 279 kts | 255° |
| 2026-05-06 10:37 | 59.21940 | 6.11075 | 9997 ft | 274 kts | 255° |
| 2026-05-06 10:37 | 59.21390 | 6.07505 | 9697 ft | 271 kts | 255° |
| 2026-05-06 10:38 | 59.20851 | 6.04009 | 9373 ft | 269 kts | 255° |
| 2026-05-06 10:38 | 59.20312 | 6.00522 | 9075 ft | 269 kts | 255° |
| 2026-05-06 10:38 | 59.19777 | 5.97065 | 8993 ft | 267 kts | 255° |
| 2026-05-06 10:38 | 59.19234 | 5.93565 | 8998 ft | 268 kts | 255° |
| 2026-05-06 10:39 | 59.18696 | 5.90106 | 8990 ft | 269 kts | 255° |
| 2026-05-06 10:39 | 59.18154 | 5.86624 | 8998 ft | 270 kts | 255° |
| 2026-05-06 10:39 | 59.17608 | 5.83130 | 8983 ft | 270 kts | 255° |
| 2026-05-06 10:39 | 59.17061 | 5.79630 | 8794 ft | 271 kts | 255° |
| 2026-05-06 10:40 | 59.16516 | 5.76161 | 8513 ft | 263 kts | 255° |
| 2026-05-06 10:40 | 59.15993 | 5.72835 | 8245 ft | 256 kts | 256° |
| 2026-05-06 10:40 | 59.15478 | 5.69563 | 7941 ft | 249 kts | 256° |
| 2026-05-06 10:40 | 59.14979 | 5.66395 | 7677 ft | 241 kts | 256° |
| 2026-05-06 10:41 | 59.14494 | 5.63330 | 7421 ft | 235 kts | 256° |
| 2026-05-06 10:41 | 59.14017 | 5.60311 | 7188 ft | 233 kts | 256° |
| 2026-05-06 10:41 | 59.13537 | 5.57279 | 6922 ft | 233 kts | 256° |
| 2026-05-06 10:41 | 59.13060 | 5.54285 | 6663 ft | 234 kts | 254° |
| 2026-05-06 10:42 | 59.12135 | 5.51717 | 6417 ft | 241 kts | 220° |
| 2026-05-06 10:42 | 59.10742 | 5.49851 | 6159 ft | 243 kts | 217° |
| 2026-05-06 10:42 | 59.09336 | 5.48035 | 5874 ft | 242 kts | 217° |
| 2026-05-06 10:42 | 59.07945 | 5.46247 | 5599 ft | 237 kts | 217° |
| 2026-05-06 10:43 | 59.06584 | 5.44501 | 5325 ft | 233 kts | 217° |
| 2026-05-06 10:43 | 59.05249 | 5.42792 | 5075 ft | 229 kts | 217° |
| 2026-05-06 10:43 | 59.03925 | 5.41101 | 4825 ft | 227 kts | 217° |
| 2026-05-06 10:44 | 59.01281 | 5.37726 | 4337 ft | 229 kts | 216° |
| 2026-05-06 10:44 | 58.99966 | 5.36050 | 4087 ft | 229 kts | 216° |
| 2026-05-06 10:44 | 58.98494 | 5.34864 | 3828 ft | 231 kts | 183° |
| 2026-05-06 10:44 | 58.96894 | 5.34964 | 3597 ft | 232 kts | 176° |
| 2026-05-06 10:45 | 58.95294 | 5.35160 | 3321 ft | 231 kts | 176° |
| 2026-05-06 10:45 | 58.93700 | 5.35365 | 3057 ft | 229 kts | 175° |
| 2026-05-06 10:45 | 58.92279 | 5.36425 | 2855 ft | 217 kts | 134° |
| 2026-05-06 10:45 | 58.91546 | 5.38818 | 2513 ft | 204 kts | 105° |
| 2026-05-06 10:46 | 58.91062 | 5.41284 | 2241 ft | 189 kts | 104° |
| 2026-05-06 10:46 | 58.90720 | 5.43647 | 1916 ft | 178 kts | 103° |
| 2026-05-06 10:46 | 58.90392 | 5.45821 | 1673 ft | 162 kts | 102° |
| 2026-05-06 10:46 | 58.90088 | 5.47838 | 1414 ft | 156 kts | 102° |
| 2026-05-06 10:47 | 58.89781 | 5.49810 | 1179 ft | 148 kts | 102° |
| 2026-05-06 10:47 | 58.89502 | 5.51687 | 980 ft | 146 kts | 103° |
| 2026-05-06 10:47 | 58.89213 | 5.53577 | 774 ft | 146 kts | 103° |
| 2026-05-06 10:47 | 58.88935 | 5.55442 | 543 ft | 145 kts | 103° |
| 2026-05-06 10:48 | 58.88656 | 5.57346 | 357 ft | 149 kts | 104° |
| 2026-05-06 10:48 | 58.88370 | 5.59246 | 179 ft | 144 kts | 104° |
| 2026-05-06 10:48 | 58.88088 | 5.61082 | 15 ft | 138 kts | 105° |
| 2026-05-06 10:48 | 58.87893 | 5.62370 | 19 ft | 36 kts | 105° |
| 2026-05-06 10:49 | 58.87844 | 5.62695 | 22 ft | 25 kts | 105° |
| 2026-05-06 10:49 | 58.87791 | 5.63026 | 25 ft | 24 kts | 108° |
| 2026-05-06 10:49 | 58.87772 | 5.63229 | 25 ft | 14 kts | 84° |
| 2026-05-06 10:49 | 58.87838 | 5.63289 | 25 ft | 11 kts | 7° |
| 2026-05-06 10:50 | 58.87911 | 5.63337 | 27 ft | 10 kts | 5° |
| 2026-05-06 10:50 | 58.87957 | 5.63235 | 26 ft | 12 kts | 281° |
| 2026-05-06 10:50 | 58.88014 | 5.63106 | 25 ft | 13 kts | 325° |
| 2026-05-06 10:50 | 58.88076 | 5.62991 | 25 ft | 6 kts | 314° |
| 2026-05-06 10:51 | 58.88088 | 5.62967 | 25 ft | 0 kts | 313° |